sensor_id;sensor_type;location;lat;lon;timestamp;temperature;humidity
11005;DHT22;5555;59.622;16.556;2024-01-30T00:02:17;2.20;99.90
11005;DHT22;5555;59.622;16.556;2024-01-30T00:04:42;2.10;99.90
11005;DHT22;5555;59.622;16.556;2024-01-30T00:07:08;2.10;99.90
11005;DHT22;5555;59.622;16.556;2024-01-30T00:09:34;2.10;99.90
11005;DHT22;5555;59.622;16.556;2024-01-30T00:11:59;2.00;99.90
11005;DHT22;5555;59.622;16.556;2024-01-30T00:14:25;2.00;99.90
11005;DHT22;5555;59.622;16.556;2024-01-30T00:16:51;2.00;99.90
11005;DHT22;5555;59.622;16.556;2024-01-30T00:19:17;2.00;99.90
11005;DHT22;5555;59.622;16.556;2024-01-30T00:21:42;1.90;99.90
11005;DHT22;5555;59.622;16.556;2024-01-30T00:24:08;1.90;99.90
11005;DHT22;5555;59.622;16.556;2024-01-30T00:26:34;1.80;99.90
11005;DHT22;5555;59.622;16.556;2024-01-30T00:29:00;1.80;99.90
11005;DHT22;5555;59.622;16.556;2024-01-30T00:31:25;1.70;99.90
11005;DHT22;5555;59.622;16.556;2024-01-30T00:33:51;1.70;99.90
11005;DHT22;5555;59.622;16.556;2024-01-30T00:36:17;1.60;99.90
11005;DHT22;5555;59.622;16.556;2024-01-30T00:38:42;1.70;99.90
11005;DHT22;5555;59.622;16.556;2024-01-30T00:41:09;1.70;99.90
11005;DHT22;5555;59.622;16.556;2024-01-30T00:43:35;1.70;99.90
11005;DHT22;5555;59.622;16.556;2024-01-30T00:46:01;1.80;99.90
11005;DHT22;5555;59.622;16.556;2024-01-30T00:48:26;1.70;99.90
11005;DHT22;5555;59.622;16.556;2024-01-30T00:50:52;1.70;99.90
11005;DHT22;5555;59.622;16.556;2024-01-30T00:53:18;1.50;99.90
11005;DHT22;5555;59.622;16.556;2024-01-30T00:55:43;1.50;99.90
11005;DHT22;5555;59.622;16.556;2024-01-30T00:58:09;1.50;99.90
11005;DHT22;5555;59.622;16.556;2024-01-30T01:00:35;1.40;99.90
11005;DHT22;5555;59.622;16.556;2024-01-30T01:03:00;1.40;99.90
11005;DHT22;5555;59.622;16.556;2024-01-30T01:05:26;1.20;99.90
11005;DHT22;5555;59.622;16.556;2024-01-30T01:07:52;1.30;99.90
11005;DHT22;5555;59.622;16.556;2024-01-30T01:10:18;1.30;99.90
11005;DHT22;5555;59.622;16.556;2024-01-30T01:12:44;1.20;99.90
11005;DHT22;5555;59.622;16.556;2024-01-30T01:15:10;1.10;99.90
11005;DHT22;5555;59.622;16.556;2024-01-30T01:17:37;1.00;99.90
11005;DHT22;5555;59.622;16.556;2024-01-30T01:20:04;1.00;99.90
11005;DHT22;5555;59.622;16.556;2024-01-30T01:22:31;1.00;99.90
11005;DHT22;5555;59.622;16.556;2024-01-30T01:24:56;1.00;99.90
11005;DHT22;5555;59.622;16.556;2024-01-30T01:27:22;1.10;99.90
11005;DHT22;5555;59.622;16.556;2024-01-30T01:29:48;1.10;99.90
11005;DHT22;5555;59.622;16.556;2024-01-30T01:32:13;1.10;99.90
11005;DHT22;5555;59.622;16.556;2024-01-30T01:34:39;1.10;99.90
11005;DHT22;5555;59.622;16.556;2024-01-30T01:37:04;1.10;99.90
11005;DHT22;5555;59.622;16.556;2024-01-30T01:39:31;1.10;99.90
11005;DHT22;5555;59.622;16.556;2024-01-30T01:41:56;1.10;99.90
11005;DHT22;5555;59.622;16.556;2024-01-30T01:44:22;1.00;99.90
11005;DHT22;5555;59.622;16.556;2024-01-30T01:46:47;1.00;99.90
11005;DHT22;5555;59.622;16.556;2024-01-30T01:49:14;1.00;99.90
11005;DHT22;5555;59.622;16.556;2024-01-30T01:51:41;0.90;99.90
11005;DHT22;5555;59.622;16.556;2024-01-30T01:54:08;1.00;99.90
11005;DHT22;5555;59.622;16.556;2024-01-30T01:56:34;1.00;99.90
11005;DHT22;5555;59.622;16.556;2024-01-30T01:59:05;1.00;99.90
11005;DHT22;5555;59.622;16.556;2024-01-30T02:01:33;0.90;99.90
11005;DHT22;5555;59.622;16.556;2024-01-30T02:03:59;0.90;99.90
11005;DHT22;5555;59.622;16.556;2024-01-30T02:06:26;0.90;99.90
11005;DHT22;5555;59.622;16.556;2024-01-30T02:08:51;0.90;99.90
11005;DHT22;5555;59.622;16.556;2024-01-30T02:11:17;0.90;99.90
11005;DHT22;5555;59.622;16.556;2024-01-30T02:13:43;1.00;99.90
11005;DHT22;5555;59.622;16.556;2024-01-30T02:16:09;1.00;99.90
11005;DHT22;5555;59.622;16.556;2024-01-30T02:18:35;1.00;99.90
11005;DHT22;5555;59.622;16.556;2024-01-30T02:21:07;1.00;99.90
11005;DHT22;5555;59.622;16.556;2024-01-30T02:23:33;1.00;99.90
11005;DHT22;5555;59.622;16.556;2024-01-30T02:26:00;0.90;99.90
11005;DHT22;5555;59.622;16.556;2024-01-30T02:28:25;0.80;99.90
11005;DHT22;5555;59.622;16.556;2024-01-30T02:30:51;0.80;99.90
11005;DHT22;5555;59.622;16.556;2024-01-30T02:33:17;0.80;99.90
11005;DHT22;5555;59.622;16.556;2024-01-30T02:35:42;0.80;99.90
11005;DHT22;5555;59.622;16.556;2024-01-30T02:38:08;0.80;99.90
11005;DHT22;5555;59.622;16.556;2024-01-30T02:40:34;0.80;99.90
11005;DHT22;5555;59.622;16.556;2024-01-30T02:43:00;0.90;99.90
11005;DHT22;5555;59.622;16.556;2024-01-30T02:45:26;0.90;99.90
11005;DHT22;5555;59.622;16.556;2024-01-30T02:47:52;0.90;99.90
11005;DHT22;5555;59.622;16.556;2024-01-30T02:50:17;0.90;99.90
11005;DHT22;5555;59.622;16.556;2024-01-30T02:52:43;0.90;99.90
11005;DHT22;5555;59.622;16.556;2024-01-30T02:55:11;0.90;99.90
11005;DHT22;5555;59.622;16.556;2024-01-30T02:57:38;0.90;99.90
11005;DHT22;5555;59.622;16.556;2024-01-30T03:00:04;0.90;99.90
11005;DHT22;5555;59.622;16.556;2024-01-30T03:02:32;1.00;99.90
11005;DHT22;5555;59.622;16.556;2024-01-30T03:04:58;0.90;99.90
11005;DHT22;5555;59.622;16.556;2024-01-30T03:07:23;1.00;99.90
11005;DHT22;5555;59.622;16.556;2024-01-30T03:09:49;1.00;99.90
11005;DHT22;5555;59.622;16.556;2024-01-30T03:12:15;0.90;99.90
11005;DHT22;5555;59.622;16.556;2024-01-30T03:14:40;0.90;99.90
11005;DHT22;5555;59.622;16.556;2024-01-30T03:17:06;0.90;99.90
11005;DHT22;5555;59.622;16.556;2024-01-30T03:19:32;0.90;99.90
11005;DHT22;5555;59.622;16.556;2024-01-30T03:21:57;0.80;99.90
11005;DHT22;5555;59.622;16.556;2024-01-30T03:24:23;0.80;99.90
11005;DHT22;5555;59.622;16.556;2024-01-30T03:26:48;0.80;99.90
11005;DHT22;5555;59.622;16.556;2024-01-30T03:29:14;0.80;99.90
11005;DHT22;5555;59.622;16.556;2024-01-30T03:31:40;0.80;99.90
11005;DHT22;5555;59.622;16.556;2024-01-30T03:34:05;0.80;99.90
11005;DHT22;5555;59.622;16.556;2024-01-30T03:36:31;0.80;99.90
11005;DHT22;5555;59.622;16.556;2024-01-30T03:38:59;0.80;99.90
11005;DHT22;5555;59.622;16.556;2024-01-30T03:41:24;0.80;99.90
11005;DHT22;5555;59.622;16.556;2024-01-30T03:43:50;0.70;99.90
11005;DHT22;5555;59.622;16.556;2024-01-30T03:46:16;0.70;99.90
11005;DHT22;5555;59.622;16.556;2024-01-30T03:48:41;0.70;99.90
11005;DHT22;5555;59.622;16.556;2024-01-30T03:51:07;0.70;99.90
11005;DHT22;5555;59.622;16.556;2024-01-30T03:53:32;0.70;99.90
11005;DHT22;5555;59.622;16.556;2024-01-30T03:55:58;0.60;99.90
11005;DHT22;5555;59.622;16.556;2024-01-30T03:58:24;0.60;99.90
11005;DHT22;5555;59.622;16.556;2024-01-30T04:00:49;0.50;99.90
11005;DHT22;5555;59.622;16.556;2024-01-30T04:03:15;0.50;99.90
11005;DHT22;5555;59.622;16.556;2024-01-30T04:05:41;0.60;99.90
11005;DHT22;5555;59.622;16.556;2024-01-30T04:08:07;0.60;99.90
11005;DHT22;5555;59.622;16.556;2024-01-30T04:10:33;0.70;99.90
11005;DHT22;5555;59.622;16.556;2024-01-30T04:12:59;0.70;99.90
11005;DHT22;5555;59.622;16.556;2024-01-30T04:15:25;0.60;99.90
11005;DHT22;5555;59.622;16.556;2024-01-30T04:17:51;0.70;99.90
11005;DHT22;5555;59.622;16.556;2024-01-30T04:20:16;0.60;99.90
11005;DHT22;5555;59.622;16.556;2024-01-30T04:22:46;0.70;99.90
11005;DHT22;5555;59.622;16.556;2024-01-30T04:25:13;0.60;99.90
11005;DHT22;5555;59.622;16.556;2024-01-30T04:27:39;0.70;99.90
11005;DHT22;5555;59.622;16.556;2024-01-30T04:30:05;0.70;99.90
11005;DHT22;5555;59.622;16.556;2024-01-30T04:32:31;0.70;99.90
11005;DHT22;5555;59.622;16.556;2024-01-30T04:34:57;0.70;99.90
11005;DHT22;5555;59.622;16.556;2024-01-30T04:37:23;0.70;99.90
11005;DHT22;5555;59.622;16.556;2024-01-30T04:39:49;0.80;99.90
11005;DHT22;5555;59.622;16.556;2024-01-30T04:42:14;0.80;99.90
11005;DHT22;5555;59.622;16.556;2024-01-30T04:44:40;0.80;99.90
11005;DHT22;5555;59.622;16.556;2024-01-30T04:47:06;0.70;99.90
11005;DHT22;5555;59.622;16.556;2024-01-30T04:49:34;0.70;99.90
11005;DHT22;5555;59.622;16.556;2024-01-30T04:52:00;0.70;99.90
11005;DHT22;5555;59.622;16.556;2024-01-30T04:54:25;0.70;99.90
11005;DHT22;5555;59.622;16.556;2024-01-30T04:56:51;0.80;99.90
11005;DHT22;5555;59.622;16.556;2024-01-30T04:59:16;0.80;99.90
11005;DHT22;5555;59.622;16.556;2024-01-30T05:01:42;0.70;99.90
11005;DHT22;5555;59.622;16.556;2024-01-30T05:04:08;0.70;99.90
11005;DHT22;5555;59.622;16.556;2024-01-30T05:06:34;0.60;99.90
11005;DHT22;5555;59.622;16.556;2024-01-30T05:08:59;0.60;99.90
11005;DHT22;5555;59.622;16.556;2024-01-30T05:11:25;0.70;99.90
11005;DHT22;5555;59.622;16.556;2024-01-30T05:13:51;0.70;99.90
11005;DHT22;5555;59.622;16.556;2024-01-30T05:16:16;0.80;99.90
11005;DHT22;5555;59.622;16.556;2024-01-30T05:18:42;0.80;99.90
11005;DHT22;5555;59.622;16.556;2024-01-30T05:21:07;0.80;99.90
11005;DHT22;5555;59.622;16.556;2024-01-30T05:23:33;0.80;99.90
11005;DHT22;5555;59.622;16.556;2024-01-30T05:25:59;0.70;99.90
11005;DHT22;5555;59.622;16.556;2024-01-30T05:28:26;0.70;99.90
11005;DHT22;5555;59.622;16.556;2024-01-30T05:30:52;0.70;99.90
11005;DHT22;5555;59.622;16.556;2024-01-30T05:33:17;0.70;99.90
11005;DHT22;5555;59.622;16.556;2024-01-30T05:35:43;0.70;99.90
11005;DHT22;5555;59.622;16.556;2024-01-30T05:38:11;0.70;99.90
11005;DHT22;5555;59.622;16.556;2024-01-30T05:40:36;0.70;99.90
11005;DHT22;5555;59.622;16.556;2024-01-30T05:43:02;0.70;99.90
11005;DHT22;5555;59.622;16.556;2024-01-30T05:45:28;0.70;99.90
11005;DHT22;5555;59.622;16.556;2024-01-30T05:47:54;0.60;99.90
11005;DHT22;5555;59.622;16.556;2024-01-30T05:50:19;0.60;99.90
11005;DHT22;5555;59.622;16.556;2024-01-30T05:52:45;0.60;99.90
11005;DHT22;5555;59.622;16.556;2024-01-30T05:55:11;0.70;99.90
11005;DHT22;5555;59.622;16.556;2024-01-30T05:57:38;0.60;99.90
11005;DHT22;5555;59.622;16.556;2024-01-30T06:00:04;0.60;99.90
11005;DHT22;5555;59.622;16.556;2024-01-30T06:02:31;0.60;99.90
11005;DHT22;5555;59.622;16.556;2024-01-30T06:04:56;0.60;99.90
11005;DHT22;5555;59.622;16.556;2024-01-30T06:07:22;0.60;99.90
11005;DHT22;5555;59.622;16.556;2024-01-30T06:09:48;0.60;99.90
11005;DHT22;5555;59.622;16.556;2024-01-30T06:12:13;0.60;99.90
11005;DHT22;5555;59.622;16.556;2024-01-30T06:14:39;0.60;99.90
11005;DHT22;5555;59.622;16.556;2024-01-30T06:17:05;0.60;99.90
11005;DHT22;5555;59.622;16.556;2024-01-30T06:19:30;0.60;99.90
11005;DHT22;5555;59.622;16.556;2024-01-30T06:21:56;0.60;99.90
11005;DHT22;5555;59.622;16.556;2024-01-30T06:24:21;0.70;99.90
11005;DHT22;5555;59.622;16.556;2024-01-30T06:26:47;0.60;99.90
11005;DHT22;5555;59.622;16.556;2024-01-30T06:29:13;0.70;99.90
11005;DHT22;5555;59.622;16.556;2024-01-30T06:31:43;0.70;99.90
11005;DHT22;5555;59.622;16.556;2024-01-30T06:34:09;0.70;99.90
11005;DHT22;5555;59.622;16.556;2024-01-30T06:36:35;0.70;99.90
11005;DHT22;5555;59.622;16.556;2024-01-30T06:39:02;0.70;99.90
11005;DHT22;5555;59.622;16.556;2024-01-30T06:41:28;0.70;99.90
11005;DHT22;5555;59.622;16.556;2024-01-30T06:43:53;0.70;99.90
11005;DHT22;5555;59.622;16.556;2024-01-30T06:46:19;0.70;99.90
11005;DHT22;5555;59.622;16.556;2024-01-30T06:48:44;0.70;99.90
11005;DHT22;5555;59.622;16.556;2024-01-30T06:51:11;0.60;99.90
11005;DHT22;5555;59.622;16.556;2024-01-30T06:53:37;0.70;99.90
11005;DHT22;5555;59.622;16.556;2024-01-30T06:56:03;0.70;99.90
11005;DHT22;5555;59.622;16.556;2024-01-30T06:58:29;0.60;99.90
11005;DHT22;5555;59.622;16.556;2024-01-30T07:00:55;0.60;99.90
11005;DHT22;5555;59.622;16.556;2024-01-30T07:03:21;0.60;99.90
11005;DHT22;5555;59.622;16.556;2024-01-30T07:05:47;0.60;99.90
11005;DHT22;5555;59.622;16.556;2024-01-30T07:08:13;0.70;99.90
11005;DHT22;5555;59.622;16.556;2024-01-30T07:10:38;0.70;99.90
11005;DHT22;5555;59.622;16.556;2024-01-30T07:13:04;0.70;99.90
11005;DHT22;5555;59.622;16.556;2024-01-30T07:15:31;0.70;99.90
11005;DHT22;5555;59.622;16.556;2024-01-30T07:17:56;0.70;99.90
11005;DHT22;5555;59.622;16.556;2024-01-30T07:20:22;0.70;99.90
11005;DHT22;5555;59.622;16.556;2024-01-30T07:22:48;0.70;99.90
11005;DHT22;5555;59.622;16.556;2024-01-30T07:25:13;0.70;99.90
11005;DHT22;5555;59.622;16.556;2024-01-30T07:27:39;0.70;99.90
11005;DHT22;5555;59.622;16.556;2024-01-30T07:30:05;0.80;99.90
11005;DHT22;5555;59.622;16.556;2024-01-30T07:32:31;0.80;99.90
11005;DHT22;5555;59.622;16.556;2024-01-30T07:34:57;0.80;99.90
11005;DHT22;5555;59.622;16.556;2024-01-30T07:37:23;0.80;99.90
11005;DHT22;5555;59.622;16.556;2024-01-30T07:39:48;0.80;99.90
11005;DHT22;5555;59.622;16.556;2024-01-30T07:42:14;0.80;99.90
11005;DHT22;5555;59.622;16.556;2024-01-30T07:44:39;0.70;99.90
11005;DHT22;5555;59.622;16.556;2024-01-30T07:47:05;0.70;99.90
11005;DHT22;5555;59.622;16.556;2024-01-30T07:49:31;0.70;99.90
11005;DHT22;5555;59.622;16.556;2024-01-30T07:51:56;0.70;99.90
11005;DHT22;5555;59.622;16.556;2024-01-30T07:54:22;0.70;99.90
11005;DHT22;5555;59.622;16.556;2024-01-30T07:56:48;0.70;99.90
11005;DHT22;5555;59.622;16.556;2024-01-30T07:59:14;0.80;99.90
11005;DHT22;5555;59.622;16.556;2024-01-30T08:01:41;0.80;99.90
11005;DHT22;5555;59.622;16.556;2024-01-30T08:04:07;0.80;99.90
11005;DHT22;5555;59.622;16.556;2024-01-30T08:06:33;0.70;99.90
11005;DHT22;5555;59.622;16.556;2024-01-30T08:08:58;0.80;99.90
11005;DHT22;5555;59.622;16.556;2024-01-30T08:11:24;0.80;99.90
11005;DHT22;5555;59.622;16.556;2024-01-30T08:13:55;0.90;99.90
11005;DHT22;5555;59.622;16.556;2024-01-30T08:16:21;0.90;99.90
11005;DHT22;5555;59.622;16.556;2024-01-30T08:18:46;1.00;99.90
11005;DHT22;5555;59.622;16.556;2024-01-30T08:21:12;1.00;99.90
11005;DHT22;5555;59.622;16.556;2024-01-30T08:23:39;0.90;99.90
11005;DHT22;5555;59.622;16.556;2024-01-30T08:26:05;0.90;99.90
11005;DHT22;5555;59.622;16.556;2024-01-30T08:28:31;0.90;99.90
11005;DHT22;5555;59.622;16.556;2024-01-30T08:30:56;1.00;99.90
11005;DHT22;5555;59.622;16.556;2024-01-30T08:33:22;1.10;99.90
11005;DHT22;5555;59.622;16.556;2024-01-30T08:35:48;1.00;99.90
11005;DHT22;5555;59.622;16.556;2024-01-30T08:38:13;1.20;99.90
11005;DHT22;5555;59.622;16.556;2024-01-30T08:40:39;1.20;99.90
11005;DHT22;5555;59.622;16.556;2024-01-30T08:43:05;1.10;99.90
11005;DHT22;5555;59.622;16.556;2024-01-30T08:45:30;1.20;99.90
11005;DHT22;5555;59.622;16.556;2024-01-30T08:47:56;1.30;99.90
11005;DHT22;5555;59.622;16.556;2024-01-30T08:50:22;1.20;99.90
11005;DHT22;5555;59.622;16.556;2024-01-30T08:52:48;1.20;99.90
11005;DHT22;5555;59.622;16.556;2024-01-30T08:55:13;1.10;99.90
11005;DHT22;5555;59.622;16.556;2024-01-30T08:57:39;1.20;99.90
11005;DHT22;5555;59.622;16.556;2024-01-30T09:00:05;1.20;99.90
11005;DHT22;5555;59.622;16.556;2024-01-30T09:02:32;1.10;99.90
11005;DHT22;5555;59.622;16.556;2024-01-30T09:04:58;1.20;99.90
11005;DHT22;5555;59.622;16.556;2024-01-30T09:07:24;1.40;99.90
11005;DHT22;5555;59.622;16.556;2024-01-30T09:09:49;1.50;99.90
11005;DHT22;5555;59.622;16.556;2024-01-30T09:12:15;1.50;99.90
11005;DHT22;5555;59.622;16.556;2024-01-30T09:14:41;1.50;99.90
11005;DHT22;5555;59.622;16.556;2024-01-30T09:17:07;1.60;99.90
11005;DHT22;5555;59.622;16.556;2024-01-30T09:19:32;1.60;99.90
11005;DHT22;5555;59.622;16.556;2024-01-30T09:21:58;1.70;99.90
11005;DHT22;5555;59.622;16.556;2024-01-30T09:24:24;1.80;99.90
11005;DHT22;5555;59.622;16.556;2024-01-30T09:26:50;1.90;99.90
11005;DHT22;5555;59.622;16.556;2024-01-30T09:29:15;1.90;99.90
11005;DHT22;5555;59.622;16.556;2024-01-30T09:31:45;2.10;99.90
11005;DHT22;5555;59.622;16.556;2024-01-30T09:34:11;2.00;99.90
11005;DHT22;5555;59.622;16.556;2024-01-30T09:36:37;1.90;99.90
11005;DHT22;5555;59.622;16.556;2024-01-30T09:39:02;2.00;99.90
11005;DHT22;5555;59.622;16.556;2024-01-30T09:41:32;2.00;99.90
11005;DHT22;5555;59.622;16.556;2024-01-30T09:43:59;2.10;99.90
11005;DHT22;5555;59.622;16.556;2024-01-30T09:46:27;2.10;99.90
11005;DHT22;5555;59.622;16.556;2024-01-30T09:48:55;2.10;99.90
11005;DHT22;5555;59.622;16.556;2024-01-30T09:51:21;2.10;99.90
11005;DHT22;5555;59.622;16.556;2024-01-30T09:53:48;2.10;99.90
11005;DHT22;5555;59.622;16.556;2024-01-30T09:56:14;1.90;99.90
11005;DHT22;5555;59.622;16.556;2024-01-30T09:58:40;1.90;99.90
11005;DHT22;5555;59.622;16.556;2024-01-30T10:01:06;1.90;99.90
11005;DHT22;5555;59.622;16.556;2024-01-30T10:03:31;1.90;99.90
11005;DHT22;5555;59.622;16.556;2024-01-30T10:05:57;1.90;99.90
11005;DHT22;5555;59.622;16.556;2024-01-30T10:08:23;1.70;99.90
11005;DHT22;5555;59.622;16.556;2024-01-30T10:10:50;1.80;99.90
11005;DHT22;5555;59.622;16.556;2024-01-30T10:13:16;1.80;99.90
11005;DHT22;5555;59.622;16.556;2024-01-30T10:15:41;1.80;99.90
11005;DHT22;5555;59.622;16.556;2024-01-30T10:18:08;1.90;99.90
11005;DHT22;5555;59.622;16.556;2024-01-30T10:20:35;2.00;99.90
11005;DHT22;5555;59.622;16.556;2024-01-30T10:23:01;2.00;99.90
11005;DHT22;5555;59.622;16.556;2024-01-30T10:25:27;2.10;99.90
11005;DHT22;5555;59.622;16.556;2024-01-30T10:27:55;2.10;99.90
11005;DHT22;5555;59.622;16.556;2024-01-30T10:30:24;2.10;99.90
11005;DHT22;5555;59.622;16.556;2024-01-30T10:32:50;2.00;99.90
11005;DHT22;5555;59.622;16.556;2024-01-30T10:35:17;2.00;99.90
11005;DHT22;5555;59.622;16.556;2024-01-30T10:37:47;1.90;99.90
11005;DHT22;5555;59.622;16.556;2024-01-30T10:40:14;1.90;99.90
11005;DHT22;5555;59.622;16.556;2024-01-30T10:42:43;1.90;99.90
11005;DHT22;5555;59.622;16.556;2024-01-30T10:45:11;2.00;99.90
11005;DHT22;5555;59.622;16.556;2024-01-30T10:47:44;2.20;99.90
11005;DHT22;5555;59.622;16.556;2024-01-30T10:50:13;2.10;99.90
11005;DHT22;5555;59.622;16.556;2024-01-30T10:52:41;2.20;99.90
11005;DHT22;5555;59.622;16.556;2024-01-30T10:55:10;2.10;99.90
11005;DHT22;5555;59.622;16.556;2024-01-30T10:57:36;2.20;99.90
11005;DHT22;5555;59.622;16.556;2024-01-30T11:00:10;2.20;99.90
11005;DHT22;5555;59.622;16.556;2024-01-30T11:02:41;2.20;99.90
11005;DHT22;5555;59.622;16.556;2024-01-30T11:05:08;2.00;99.90
11005;DHT22;5555;59.622;16.556;2024-01-30T11:07:34;2.20;99.90
11005;DHT22;5555;59.622;16.556;2024-01-30T11:10:02;2.20;99.90
11005;DHT22;5555;59.622;16.556;2024-01-30T11:12:30;2.20;99.90
11005;DHT22;5555;59.622;16.556;2024-01-30T11:15:06;2.20;99.90
11005;DHT22;5555;59.622;16.556;2024-01-30T11:17:43;2.20;99.90
11005;DHT22;5555;59.622;16.556;2024-01-30T11:20:35;2.20;99.90
11005;DHT22;5555;59.622;16.556;2024-01-30T11:23:01;2.20;99.90
11005;DHT22;5555;59.622;16.556;2024-01-30T11:25:32;2.20;99.90
11005;DHT22;5555;59.622;16.556;2024-01-30T11:27:58;2.30;99.90
11005;DHT22;5555;59.622;16.556;2024-01-30T11:30:24;2.50;99.90
11005;DHT22;5555;59.622;16.556;2024-01-30T11:33:09;2.60;99.90
11005;DHT22;5555;59.622;16.556;2024-01-30T11:35:38;2.70;99.90
11005;DHT22;5555;59.622;16.556;2024-01-30T11:38:09;2.70;99.90
11005;DHT22;5555;59.622;16.556;2024-01-30T11:40:37;2.80;99.90
11005;DHT22;5555;59.622;16.556;2024-01-30T11:43:04;2.70;99.90
11005;DHT22;5555;59.622;16.556;2024-01-30T11:45:31;2.60;99.90
11005;DHT22;5555;59.622;16.556;2024-01-30T11:47:57;2.70;99.90
11005;DHT22;5555;59.622;16.556;2024-01-30T11:50:25;2.70;99.90
11005;DHT22;5555;59.622;16.556;2024-01-30T11:52:51;2.70;99.90
11005;DHT22;5555;59.622;16.556;2024-01-30T11:55:17;2.60;99.90
11005;DHT22;5555;59.622;16.556;2024-01-30T11:57:43;2.50;99.90
11005;DHT22;5555;59.622;16.556;2024-01-30T12:00:17;2.50;99.90
11005;DHT22;5555;59.622;16.556;2024-01-30T12:02:44;2.60;99.90
11005;DHT22;5555;59.622;16.556;2024-01-30T12:05:10;2.50;99.90
11005;DHT22;5555;59.622;16.556;2024-01-30T12:07:36;2.50;99.90
11005;DHT22;5555;59.622;16.556;2024-01-30T12:10:02;2.50;99.90
11005;DHT22;5555;59.622;16.556;2024-01-30T12:12:29;2.50;99.90
11005;DHT22;5555;59.622;16.556;2024-01-30T12:14:55;2.50;99.90
11005;DHT22;5555;59.622;16.556;2024-01-30T12:17:30;2.60;99.90
11005;DHT22;5555;59.622;16.556;2024-01-30T12:20:17;2.60;99.90
11005;DHT22;5555;59.622;16.556;2024-01-30T12:22:44;2.60;99.90
11005;DHT22;5555;59.622;16.556;2024-01-30T12:25:15;2.60;99.90
11005;DHT22;5555;59.622;16.556;2024-01-30T12:27:45;2.60;99.90
11005;DHT22;5555;59.622;16.556;2024-01-30T12:30:13;2.50;99.90
11005;DHT22;5555;59.622;16.556;2024-01-30T12:32:42;2.40;99.90
11005;DHT22;5555;59.622;16.556;2024-01-30T12:35:12;2.40;99.90
11005;DHT22;5555;59.622;16.556;2024-01-30T12:37:38;2.40;99.90
11005;DHT22;5555;59.622;16.556;2024-01-30T12:40:05;2.40;99.90
11005;DHT22;5555;59.622;16.556;2024-01-30T12:42:31;2.40;99.90
11005;DHT22;5555;59.622;16.556;2024-01-30T12:44:58;2.40;99.90
11005;DHT22;5555;59.622;16.556;2024-01-30T12:47:24;2.40;99.90
11005;DHT22;5555;59.622;16.556;2024-01-30T12:49:50;2.40;99.90
11005;DHT22;5555;59.622;16.556;2024-01-30T12:52:19;2.30;99.90
11005;DHT22;5555;59.622;16.556;2024-01-30T12:54:46;2.20;99.90
11005;DHT22;5555;59.622;16.556;2024-01-30T12:57:11;2.30;99.90
11005;DHT22;5555;59.622;16.556;2024-01-30T12:59:37;2.20;99.90
11005;DHT22;5555;59.622;16.556;2024-01-30T13:02:03;2.30;99.90
11005;DHT22;5555;59.622;16.556;2024-01-30T13:04:29;2.30;99.90
11005;DHT22;5555;59.622;16.556;2024-01-30T13:06:55;2.40;99.90
11005;DHT22;5555;59.622;16.556;2024-01-30T13:09:21;2.50;99.90
11005;DHT22;5555;59.622;16.556;2024-01-30T13:11:46;2.30;99.90
11005;DHT22;5555;59.622;16.556;2024-01-30T13:14:12;2.20;99.90
11005;DHT22;5555;59.622;16.556;2024-01-30T13:16:38;2.20;99.90
11005;DHT22;5555;59.622;16.556;2024-01-30T13:19:04;2.20;99.90
11005;DHT22;5555;59.622;16.556;2024-01-30T13:21:29;2.10;99.90
11005;DHT22;5555;59.622;16.556;2024-01-30T13:23:55;2.20;99.90
11005;DHT22;5555;59.622;16.556;2024-01-30T13:26:21;2.20;99.90
11005;DHT22;5555;59.622;16.556;2024-01-30T13:28:47;2.20;99.90
11005;DHT22;5555;59.622;16.556;2024-01-30T13:31:14;2.20;99.90
11005;DHT22;5555;59.622;16.556;2024-01-30T13:33:40;2.20;99.90
11005;DHT22;5555;59.622;16.556;2024-01-30T13:36:09;2.20;99.90
11005;DHT22;5555;59.622;16.556;2024-01-30T13:38:35;2.20;99.90
11005;DHT22;5555;59.622;16.556;2024-01-30T13:41:01;2.30;99.90
11005;DHT22;5555;59.622;16.556;2024-01-30T13:43:28;2.30;99.90
11005;DHT22;5555;59.622;16.556;2024-01-30T13:45:53;2.30;99.90
11005;DHT22;5555;59.622;16.556;2024-01-30T13:48:19;2.40;99.90
11005;DHT22;5555;59.622;16.556;2024-01-30T13:50:45;2.40;99.90
11005;DHT22;5555;59.622;16.556;2024-01-30T13:53:12;2.40;99.90
11005;DHT22;5555;59.622;16.556;2024-01-30T13:55:37;2.30;99.90
11005;DHT22;5555;59.622;16.556;2024-01-30T13:58:05;2.30;99.90
11005;DHT22;5555;59.622;16.556;2024-01-30T14:00:30;2.30;99.90
11005;DHT22;5555;59.622;16.556;2024-01-30T14:02:56;2.30;99.90
11005;DHT22;5555;59.622;16.556;2024-01-30T14:05:23;2.30;99.90
11005;DHT22;5555;59.622;16.556;2024-01-30T14:07:50;2.30;99.90
11005;DHT22;5555;59.622;16.556;2024-01-30T14:10:16;2.30;99.90
11005;DHT22;5555;59.622;16.556;2024-01-30T14:12:42;2.30;99.90
11005;DHT22;5555;59.622;16.556;2024-01-30T14:15:09;2.20;99.90
11005;DHT22;5555;59.622;16.556;2024-01-30T14:17:35;2.20;99.90
11005;DHT22;5555;59.622;16.556;2024-01-30T14:20:02;2.10;99.90
11005;DHT22;5555;59.622;16.556;2024-01-30T14:22:29;2.10;99.90
11005;DHT22;5555;59.622;16.556;2024-01-30T14:24:54;2.10;99.90
11005;DHT22;5555;59.622;16.556;2024-01-30T14:27:21;2.10;99.90
11005;DHT22;5555;59.622;16.556;2024-01-30T14:29:47;2.00;99.90
11005;DHT22;5555;59.622;16.556;2024-01-30T14:32:13;2.00;99.90
11005;DHT22;5555;59.622;16.556;2024-01-30T14:34:38;2.00;99.90
11005;DHT22;5555;59.622;16.556;2024-01-30T14:37:04;1.90;99.90
11005;DHT22;5555;59.622;16.556;2024-01-30T14:39:30;1.90;99.90
11005;DHT22;5555;59.622;16.556;2024-01-30T14:41:56;1.90;99.90
11005;DHT22;5555;59.622;16.556;2024-01-30T14:44:21;1.90;99.90
11005;DHT22;5555;59.622;16.556;2024-01-30T14:46:48;1.90;99.90
11005;DHT22;5555;59.622;16.556;2024-01-30T14:49:14;1.90;99.90
11005;DHT22;5555;59.622;16.556;2024-01-30T14:51:41;1.90;99.90
11005;DHT22;5555;59.622;16.556;2024-01-30T14:54:06;2.00;99.90
11005;DHT22;5555;59.622;16.556;2024-01-30T14:56:32;1.90;99.90
11005;DHT22;5555;59.622;16.556;2024-01-30T14:58:58;2.00;99.90
11005;DHT22;5555;59.622;16.556;2024-01-30T15:01:24;2.00;99.90
11005;DHT22;5555;59.622;16.556;2024-01-30T15:03:50;2.00;99.90
11005;DHT22;5555;59.622;16.556;2024-01-30T15:06:17;2.00;99.90
11005;DHT22;5555;59.622;16.556;2024-01-30T15:08:43;2.00;99.90
11005;DHT22;5555;59.622;16.556;2024-01-30T15:11:10;2.00;99.90
11005;DHT22;5555;59.622;16.556;2024-01-30T15:13:36;2.00;99.90
11005;DHT22;5555;59.622;16.556;2024-01-30T15:16:02;1.90;99.90
11005;DHT22;5555;59.622;16.556;2024-01-30T15:18:30;1.90;99.90
11005;DHT22;5555;59.622;16.556;2024-01-30T15:20:56;1.90;99.90
11005;DHT22;5555;59.622;16.556;2024-01-30T15:23:21;1.90;99.90
11005;DHT22;5555;59.622;16.556;2024-01-30T15:25:47;1.90;99.90
11005;DHT22;5555;59.622;16.556;2024-01-30T15:28:13;1.90;99.90
11005;DHT22;5555;59.622;16.556;2024-01-30T15:30:40;1.90;99.90
11005;DHT22;5555;59.622;16.556;2024-01-30T15:33:09;1.90;99.90
11005;DHT22;5555;59.622;16.556;2024-01-30T15:35:34;1.90;99.90
11005;DHT22;5555;59.622;16.556;2024-01-30T15:38:00;1.90;99.90
11005;DHT22;5555;59.622;16.556;2024-01-30T15:40:26;1.90;99.90